Time;durP1;ratioP1;P1;durP2;ratioP2;P2;SDS_P1;SDS_P2;PMS_P1;PMS_P2;Temp;Humidity;BMP_temperature;BMP_pressure;BME280_temperature;BME280_humidity;BME280_pressure;Samples;Min_cycle;Max_cycle;Signal;HPM_P1;HPM_P2
2022/05/08 00:00:59;;;;;;;8.35;5.03;;;;;;;-143.53;100.00;58366.03;2038757;28;20212;-68
2022/05/08 00:02:01;;;;;;;6.50;4.10;;;;;;;-143.53;100.00;58366.03;2055587;28;20214;-67
2022/05/08 00:03:03;;;;;;;11.85;4.00;;;;;;;-143.53;100.00;58366.03;2052528;28;20207;-67
2022/05/08 00:04:05;;;;;;;5.35;4.32;;;;;;;-143.53;100.00;58366.03;2046343;29;20251;-67
2022/05/08 00:05:12;;;;;;;6.22;4.20;;;;;;;-143.53;100.00;58366.03;2046369;29;20203;-67
2022/05/08 00:06:13;;;;;;;7.45;4.82;;;;;;;-143.53;100.00;58366.03;2042172;28;20719;-67
2022/05/08 00:07:15;;;;;;;6.95;3.97;;;;;;;-143.53;100.00;58366.03;2055566;28;20199;-68
2022/05/08 00:08:16;;;;;;;8.98;4.90;;;;;;;-143.53;100.00;58366.03;2051515;28;20215;-67
2022/05/08 00:09:18;;;;;;;7.10;4.95;;;;;;;-143.53;100.00;58366.03;2047116;28;20305;-67
2022/05/08 00:10:20;;;;;;;7.03;4.55;;;;;;;-143.53;100.00;58366.03;2047039;29;20556;-67
2022/05/08 00:11:21;;;;;;;6.18;5.07;;;;;;;-143.53;100.00;58366.03;2042930;28;20305;-67
2022/05/08 00:12:23;;;;;;;6.40;4.18;;;;;;;-143.53;100.00;58366.03;2054565;28;20231;-67
2022/05/08 00:13:24;;;;;;;8.23;4.97;;;;;;;-143.53;100.00;58366.03;2050708;28;20208;-67
2022/05/08 00:14:25;;;;;;;6.20;4.55;;;;;;;-143.53;100.00;58366.03;2047163;28;20199;-67
2022/05/08 00:15:28;;;;;;;5.03;4.10;;;;;;;-143.53;100.00;58366.03;2048183;29;20556;-67
2022/05/08 00:16:29;;;;;;;10.73;4.90;;;;;;;-143.53;100.00;58366.03;2044091;28;20225;-67
2022/05/08 00:17:34;;;;;;;7.10;4.38;;;;;;;-143.53;100.00;58366.03;2055393;28;20199;-67
2022/05/08 00:18:39;;;;;;;7.00;4.97;;;;;;;-143.53;100.00;58366.03;2048488;28;20204;-67
2022/05/08 00:19:42;;;;;;;6.47;4.20;;;;;;;-143.53;100.00;58366.03;2048170;28;20206;-67
2022/05/08 00:20:43;;;;;;;6.97;4.55;;;;;;;-143.53;100.00;58366.03;2045260;28;20204;-66
2022/05/08 00:21:44;;;;;;;6.00;4.63;;;;;;;-143.53;100.00;58366.03;2052667;28;20789;-67
2022/05/08 00:22:46;;;;;;;10.60;4.80;;;;;;;-143.53;100.00;58366.03;2054128;28;20203;-68
2022/05/08 00:23:47;;;;;;;5.35;4.43;;;;;;;-143.53;100.00;58366.03;2046744;29;20585;-68
2022/05/08 00:24:49;;;;;;;9.10;4.38;;;;;;;-143.53;100.00;58366.03;2048088;28;20578;-67
2022/05/08 00:25:50;;;;;;;4.63;3.75;;;;;;;-143.53;100.00;58366.03;2037893;28;20307;-68
2022/05/08 00:26:52;;;;;;;7.82;4.93;;;;;;;-143.53;100.00;58366.03;2053719;28;20195;-67
2022/05/08 00:27:53;;;;;;;8.18;4.28;;;;;;;-143.53;100.00;58366.03;2052463;28;20196;-67
2022/05/08 00:28:55;;;;;;;9.20;4.35;;;;;;;-143.53;100.00;58366.03;2046084;28;20201;-67
2022/05/08 00:29:57;;;;;;;12.73;5.90;;;;;;;-143.53;100.00;58366.03;2046408;28;20269;-67
2022/05/08 00:30:59;;;;;;;9.52;5.07;;;;;;;-143.53;100.00;58366.03;2039875;28;20207;-67
2022/05/08 00:32:01;;;;;;;9.05;5.15;;;;;;;-143.53;100.00;58366.03;2055285;28;20199;-68
2022/05/08 00:33:02;;;;;;;5.68;4.35;;;;;;;-143.53;100.00;58366.03;2052197;28;20266;-68
2022/05/08 00:34:04;;;;;;;11.60;4.85;;;;;;;-143.53;100.00;58366.03;2047954;29;20611;-68
2022/05/08 00:35:12;;;;;;;9.85;5.47;;;;;;;-143.53;100.00;58366.03;2047982;28;20214;-67
2022/05/08 00:36:14;;;;;;;5.57;4.47;;;;;;;-143.53;100.00;58366.03;2042072;28;20613;-67
2022/05/08 00:37:15;;;;;;;9.63;5.15;;;;;;;-143.53;100.00;58366.03;2055392;28;20867;-67
2022/05/08 00:38:16;;;;;;;7.32;4.90;;;;;;;-143.53;100.00;58366.03;2050991;28;20212;-67
2022/05/08 00:39:19;;;;;;;7.75;5.60;;;;;;;-143.53;100.00;58366.03;2047947;28;20828;-67
2022/05/08 00:40:20;;;;;;;6.65;4.60;;;;;;;-143.53;100.00;58366.03;2047986;28;20566;-68
2022/05/08 00:41:26;;;;;;;9.52;5.05;;;;;;;-143.53;100.00;58366.03;2033881;28;20242;-67
2022/05/08 00:42:28;;;;;;;7.70;4.65;;;;;;;-143.53;100.00;58366.03;2045258;28;20203;-67
2022/05/08 00:43:39;;;;;;;15.05;4.95;;;;;;;-143.53;100.00;58366.03;2049568;28;20219;-67
2022/05/08 00:44:40;;;;;;;8.45;5.50;;;;;;;-143.53;100.00;58366.03;2048010;28;20204;-67
2022/05/08 00:45:41;;;;;;;8.18;5.15;;;;;;;-143.53;100.00;58366.03;2047216;29;20200;-67
2022/05/08 00:46:43;;;;;;;10.80;5.78;;;;;;;-143.53;100.00;58366.03;2029798;29;20220;-67
2022/05/08 00:47:46;;;;;;;6.93;4.38;;;;;;;-143.53;100.00;58366.03;2039417;29;20574;-67
2022/05/08 00:48:48;;;;;;;8.90;5.03;;;;;;;-143.53;100.00;58366.03;2046767;29;20211;-67
2022/05/08 00:49:50;;;;;;;6.90;4.68;;;;;;;-143.53;100.00;58366.03;2044625;28;20207;-67
2022/05/08 00:50:52;;;;;;;8.75;4.90;;;;;;;-143.53;100.00;58366.03;2036047;28;20205;-67
2022/05/08 00:51:54;;;;;;;5.88;4.95;;;;;;;-143.53;100.00;58366.03;2053475;28;20280;-67
2022/05/08 00:52:55;;;;;;;13.43;5.43;;;;;;;-143.53;100.00;58366.03;2053275;28;20206;-67
2022/05/08 00:54:00;;;;;;;6.05;4.47;;;;;;;-143.53;100.00;58366.03;2047919;28;20202;-67
2022/05/08 00:55:03;;;;;;;8.88;5.15;;;;;;;-143.53;100.00;58366.03;2046587;29;20203;-67
2022/05/08 00:56:07;;;;;;;6.97;4.93;;;;;;;-143.53;100.00;58366.03;2039630;28;20223;-67
2022/05/08 00:57:10;;;;;;;12.60;4.97;;;;;;;-143.53;100.00;58366.03;2054968;28;20205;-67
2022/05/08 00:58:11;;;;;;;12.95;4.78;;;;;;;-143.53;100.00;58366.03;2051404;28;20559;-68
2022/05/08 00:59:13;;;;;;;13.60;4.38;;;;;;;-143.53;100.00;58366.03;2047705;28;20227;-67
2022/05/08 01:00:15;;;;;;;4.68;4.20;;;;;;;-143.53;100.00;58366.03;2046578;29;20211;-67
2022/05/08 01:01:17;;;;;;;6.22;4.68;;;;;;;-143.53;100.00;58366.03;2041962;28;20563;-67
2022/05/08 01:02:18;;;;;;;6.97;4.93;;;;;;;-143.53;100.00;58366.03;2054738;28;20811;-67
2022/05/08 01:03:20;;;;;;;5.60;4.35;;;;;;;-143.53;100.00;58366.03;2046815;28;20296;-67
2022/05/08 01:04:22;;;;;;;5.50;4.55;;;;;;;-143.53;100.00;58366.03;2044110;29;20204;-67
2022/05/08 01:05:24;;;;;;;6.13;5.07;;;;;;;-143.53;100.00;58366.03;2045558;29;20203;-67
2022/05/08 01:06:26;;;;;;;10.43;4.53;;;;;;;-143.53;100.00;58366.03;2042752;28;20219;-67
2022/05/08 01:07:28;;;;;;;11.73;6.00;;;;;;;-143.53;100.00;58366.03;2054431;28;20211;-67
2022/05/08 01:08:30;;;;;;;7.20;5.68;;;;;;;-143.53;100.00;58366.03;2049065;28;20196;-67
2022/05/08 01:09:31;;;;;;;9.20;5.03;;;;;;;-143.53;100.00;58366.03;2047700;28;20656;-68
2022/05/08 01:10:33;;;;;;;7.28;4.95;;;;;;;-143.53;100.00;58366.03;2047735;28;20296;-67
2022/05/08 01:11:36;;;;;;;8.95;5.40;;;;;;;-143.53;100.00;58366.03;2044364;28;20222;-67
2022/05/08 01:12:44;;;;;;;8.05;5.00;;;;;;;-143.53;100.00;58366.03;2055003;28;20201;-67
2022/05/08 01:13:45;;;;;;;7.65;4.93;;;;;;;-143.53;100.00;58366.03;2047711;28;20543;-67
2022/05/08 01:14:47;;;;;;;11.95;5.50;;;;;;;-143.53;100.00;58366.03;2046928;28;20571;-67
2022/05/08 01:15:48;;;;;;;8.90;5.25;;;;;;;-143.53;100.00;58366.03;2037797;28;20204;-67
2022/05/08 01:16:50;;;;;;;12.77;6.03;;;;;;;-143.53;100.00;58366.03;2054721;28;20210;-67
2022/05/08 01:17:53;;;;;;;10.70;5.35;;;;;;;-143.53;100.00;58366.03;2054325;28;20679;-68
2022/05/08 01:18:55;;;;;;;10.35;5.60;;;;;;;-143.53;100.00;58366.03;2046931;29;20215;-67
2022/05/08 01:19:56;;;;;;;13.38;5.80;;;;;;;-143.53;100.00;58366.03;2047226;29;20215;-68
2022/05/08 01:20:58;;;;;;;10.82;5.50;;;;;;;-143.53;100.00;58366.03;2039917;28;20239;-67
2022/05/08 01:21:59;;;;;;;13.23;5.93;;;;;;;-143.53;100.00;58366.03;2054768;28;20722;-67
2022/05/08 01:23:05;;;;;;;10.38;6.25;;;;;;;-143.53;100.00;58366.03;2051971;28;20199;-67
2022/05/08 01:24:07;;;;;;;14.32;6.45;;;;;;;-143.53;100.00;58366.03;2047236;29;20203;-67
2022/05/08 01:25:09;;;;;;;9.02;5.30;;;;;;;-143.53;100.00;58366.03;2047677;28;20217;-67
2022/05/08 01:26:10;;;;;;;10.07;6.20;;;;;;;-143.53;100.00;58366.03;2039201;28;20912;-67
2022/05/08 01:27:12;;;;;;;9.80;5.85;;;;;;;-143.53;100.00;58366.03;2052868;28;20297;-68
2022/05/08 01:28:14;;;;;;;8.10;5.97;;;;;;;-143.53;100.00;58366.03;2049738;28;20203;-67
2022/05/08 01:29:17;;;;;;;7.55;5.95;;;;;;;-143.53;100.00;58366.03;2047241;29;20200;-67
2022/05/08 01:30:18;;;;;;;7.78;5.65;;;;;;;-143.53;100.00;58366.03;2046254;29;20242;-67
2022/05/08 01:31:20;;;;;;;9.48;5.60;;;;;;;-143.53;100.00;58366.03;2042028;28;20249;-67
2022/05/08 01:32:25;;;;;;;13.43;5.55;;;;;;;-143.53;100.00;58366.03;2054926;28;20665;-67
2022/05/08 01:33:27;;;;;;;9.57;4.32;;;;;;;-143.53;100.00;58366.03;2045825;29;20211;-67
2022/05/08 01:34:29;;;;;;;10.10;5.75;;;;;;;-143.53;100.00;58366.03;2046957;29;20231;-67
2022/05/08 01:35:30;;;;;;;11.48;5.40;;;;;;;-143.53;100.00;58366.03;2046524;29;20693;-67
2022/05/08 01:36:32;;;;;;;10.18;6.30;;;;;;;-143.53;100.00;58366.03;2043317;28;20231;-67
2022/05/08 01:37:33;;;;;;;7.32;4.95;;;;;;;-143.53;100.00;58366.03;2053068;28;20203;-67
2022/05/08 01:38:34;;;;;;;8.73;5.13;;;;;;;-143.53;100.00;58366.03;2048739;28;20220;-67
2022/05/08 01:39:36;;;;;;;11.45;5.05;;;;;;;-143.53;100.00;58366.03;2047412;28;20206;-67
2022/05/08 01:40:39;;;;;;;11.65;5.10;;;;;;;-143.53;100.00;58366.03;2045734;29;20199;-68
2022/05/08 01:41:40;;;;;;;7.55;5.20;;;;;;;-143.53;100.00;58366.03;2037319;28;20231;-67
2022/05/08 01:42:42;;;;;;;8.45;4.53;;;;;;;-143.53;100.00;58366.03;2048403;28;20683;-67
2022/05/08 01:43:43;;;;;;;9.60;5.38;;;;;;;-143.53;100.00;58366.03;2047285;29;20211;-67
2022/05/08 01:44:45;;;;;;;12.68;5.60;;;;;;;-143.53;100.00;58366.03;2046236;28;20200;-67
2022/05/08 01:45:47;;;;;;;10.60;5.75;;;;;;;-143.53;100.00;58366.03;2037449;28;20207;-67
2022/05/08 01:48:21;;;;;;;7.70;4.97;;;;;;;-143.53;100.00;58366.03;2054786;28;20427;-68
2022/05/08 01:48:22;;;;;;;6.18;4.93;;;;;;;-143.53;100.00;58366.03;2047620;28;20196;-67
2022/05/08 01:49:24;;;;;;;7.80;5.88;;;;;;;-143.53;100.00;58366.03;2047211;29;20220;-67
2022/05/08 01:50:26;;;;;;;9.02;4.90;;;;;;;-143.53;100.00;58366.03;2047676;28;20196;-67
2022/05/08 01:51:27;;;;;;;9.77;5.45;;;;;;;-143.53;100.00;58366.03;2043423;28;20690;-68
2022/05/08 01:52:29;;;;;;;12.10;5.07;;;;;;;-143.53;100.00;58366.03;2046941;29;20210;-67
2022/05/08 01:53:33;;;;;;;9.88;5.28;;;;;;;-143.53;100.00;58366.03;2044602;29;20204;-67
2022/05/08 01:54:34;;;;;;;10.85;5.25;;;;;;;-143.53;100.00;58366.03;2047205;29;20200;-67
2022/05/08 01:55:36;;;;;;;11.38;5.78;;;;;;;-143.53;100.00;58366.03;2047015;29;20199;-67
2022/05/08 01:56:37;;;;;;;9.05;5.68;;;;;;;-143.53;100.00;58366.03;2037551;28;20230;-67
2022/05/08 01:57:39;;;;;;;7.07;5.55;;;;;;;-143.53;100.00;58366.03;2054783;28;20203;-67
2022/05/08 01:58:41;;;;;;;6.68;5.85;;;;;;;-143.53;100.00;58366.03;2047213;28;20208;-67
2022/05/08 01:59:42;;;;;;;15.38;6.45;;;;;;;-143.53;100.00;58366.03;2047505;28;20203;-67
2022/05/08 02:00:45;;;;;;;11.32;6.50;;;;;;;-143.53;100.00;58366.03;2044230;28;20211;-66
2022/05/08 02:01:46;;;;;;;8.73;5.65;;;;;;;-143.53;100.00;58366.03;2047404;28;20203;-67
2022/05/08 02:02:49;;;;;;;18.10;5.80;;;;;;;-143.53;100.00;58366.03;2044725;28;20618;-67
2022/05/08 02:03:50;;;;;;;8.88;5.95;;;;;;;-143.53;100.00;58366.03;2045365;29;20200;-67
2022/05/08 02:04:52;;;;;;;8.70;5.38;;;;;;;-143.53;100.00;58366.03;2047166;28;20203;-67
2022/05/08 02:05:53;;;;;;;7.45;6.18;;;;;;;-143.53;100.00;58366.03;2036430;28;20825;-67
2022/05/08 02:06:55;;;;;;;8.23;6.47;;;;;;;-143.53;100.00;58366.03;2054897;28;20202;-67
2022/05/08 02:07:57;;;;;;;8.80;6.47;;;;;;;-143.53;100.00;58366.03;2053135;28;20206;-67
2022/05/08 02:08:58;;;;;;;7.63;5.78;;;;;;;-143.53;100.00;58366.03;2047322;28;20211;-67
2022/05/08 02:10:02;;;;;;;12.98;6.13;;;;;;;-143.53;100.00;58366.03;2047168;28;20220;-67
2022/05/08 02:11:06;;;;;;;9.10;5.45;;;;;;;-143.53;100.00;58366.03;2039042;28;20230;-67
2022/05/08 02:12:08;;;;;;;11.15;5.97;;;;;;;-143.53;100.00;58366.03;2054071;28;20200;-68
2022/05/08 02:13:10;;;;;;;13.00;5.30;;;;;;;-143.53;100.00;58366.03;2050312;28;20905;-67
2022/05/08 02:14:12;;;;;;;11.55;6.07;;;;;;;-143.53;100.00;58366.03;2046674;28;20538;-68
2022/05/08 02:15:17;;;;;;;10.40;5.65;;;;;;;-143.53;100.00;58366.03;2047466;28;20188;-67
2022/05/08 02:16:18;;;;;;;7.15;5.45;;;;;;;-143.53;100.00;58366.03;2036396;28;20831;-67
2022/05/08 02:17:22;;;;;;;10.95;6.15;;;;;;;-143.53;100.00;58366.03;2053439;28;20207;-67
2022/05/08 02:18:23;;;;;;;9.05;5.30;;;;;;;-143.53;100.00;58366.03;2048744;28;20231;-67
2022/05/08 02:19:25;;;;;;;6.00;4.57;;;;;;;-143.53;100.00;58366.03;2047350;28;20664;-67
2022/05/08 02:20:28;;;;;;;5.78;4.30;;;;;;;-143.53;100.00;58366.03;2046374;28;20212;-67
2022/05/08 02:21:30;;;;;;;8.50;5.22;;;;;;;-143.53;100.00;58366.03;2042250;28;20226;-67
2022/05/08 02:22:35;;;;;;;9.75;5.55;;;;;;;-143.53;100.00;58366.03;2054663;28;20203;-67
2022/05/08 02:23:36;;;;;;;6.78;4.80;;;;;;;-143.53;100.00;58366.03;2047689;28;20663;-67
2022/05/08 02:24:38;;;;;;;7.35;4.50;;;;;;;-143.53;100.00;58366.03;2047490;28;20210;-67
2022/05/08 02:25:40;;;;;;;5.70;4.85;;;;;;;-143.53;100.00;58366.03;2045761;28;20563;-67
2022/05/08 02:26:41;;;;;;;6.38;4.75;;;;;;;-143.53;100.00;58366.03;2044765;28;20222;-67
2022/05/08 02:27:46;;;;;;;6.75;4.95;;;;;;;-143.53;100.00;58366.03;2056277;28;20261;-67
2022/05/08 02:28:47;;;;;;;8.10;5.97;;;;;;;-143.53;100.00;58366.03;2048378;29;20555;-68
2022/05/08 02:29:50;;;;;;;9.50;5.47;;;;;;;-143.53;100.00;58366.03;2048275;29;20206;-67
2022/05/08 02:30:52;;;;;;;9.35;5.00;;;;;;;-143.53;100.00;58366.03;2040017;28;20440;-67
2022/05/08 02:31:53;;;;;;;9.30;4.78;;;;;;;-143.53;100.00;58366.03;2054648;28;20203;-68
2022/05/08 02:32:55;;;;;;;7.82;4.82;;;;;;;-143.53;100.00;58366.03;2053551;28;20210;-67
2022/05/08 02:33:57;;;;;;;8.85;5.00;;;;;;;-143.53;100.00;58366.03;2047648;29;20209;-67
2022/05/08 02:34:58;;;;;;;7.25;5.22;;;;;;;-143.53;100.00;58366.03;2049012;28;20198;-67
2022/05/08 02:36:00;;;;;;;11.60;5.50;;;;;;;-143.53;100.00;58366.03;2041060;28;20226;-67
2022/05/08 02:37:01;;;;;;;7.95;5.07;;;;;;;-143.53;100.00;58366.03;2056259;28;20217;-67
2022/05/08 02:38:03;;;;;;;10.45;5.10;;;;;;;-143.53;100.00;58366.03;2048194;29;20213;-67
2022/05/08 02:39:04;;;;;;;12.20;4.72;;;;;;;-143.53;100.00;58366.03;2040291;29;20315;-67
2022/05/08 02:40:08;;;;;;;7.32;5.38;;;;;;;-143.53;100.00;58366.03;2046145;29;20255;-67
2022/05/08 02:41:10;;;;;;;5.57;4.55;;;;;;;-143.53;100.00;58366.03;2042324;28;20855;-67
2022/05/08 02:42:12;;;;;;;6.15;5.15;;;;;;;-143.53;100.00;58366.03;2055190;28;20195;-67
2022/05/08 02:43:14;;;;;;;6.18;5.13;;;;;;;-143.53;100.00;58366.03;2052460;28;20196;-67
2022/05/08 02:44:16;;;;;;;5.68;4.72;;;;;;;-143.53;100.00;58366.03;2047545;29;20206;-67
2022/05/08 02:45:18;;;;;;;10.85;5.03;;;;;;;-143.53;100.00;58366.03;2048561;28;20266;-67
2022/05/08 02:46:20;;;;;;;13.35;4.95;;;;;;;-143.53;100.00;58366.03;2042762;28;20235;-67
2022/05/08 02:47:22;;;;;;;8.52;4.90;;;;;;;-143.53;100.00;58366.03;2054977;28;20210;-67
2022/05/08 02:48:23;;;;;;;8.05;5.75;;;;;;;-143.53;100.00;58366.03;2051495;28;20229;-67
2022/05/08 02:49:25;;;;;;;10.73;5.88;;;;;;;-143.53;100.00;58366.03;2047722;28;20199;-67
2022/05/08 02:50:27;;;;;;;11.68;5.93;;;;;;;-143.53;100.00;58366.03;2047602;29;20338;-67
2022/05/08 02:51:28;;;;;;;9.40;5.30;;;;;;;-143.53;100.00;58366.03;2041777;28;20231;-67
2022/05/08 02:52:30;;;;;;;7.78;5.18;;;;;;;-143.53;100.00;58366.03;2051673;28;20207;-68
2022/05/08 02:53:32;;;;;;;6.65;4.90;;;;;;;-143.53;100.00;58366.03;2047014;28;20647;-67
2022/05/08 02:54:33;;;;;;;9.43;5.40;;;;;;;-143.53;100.00;58366.03;2046872;29;20211;-67
2022/05/08 02:58:33;;;;;;;7.10;5.00;;;;;;;-143.53;100.00;58366.03;2048560;29;20215;-67
2022/05/08 02:59:34;;;;;;;6.00;4.78;;;;;;;-143.53;100.00;58366.03;2048582;28;20683;-67
2022/05/08 03:00:36;;;;;;;12.93;4.97;;;;;;;-143.53;100.00;58366.03;2048796;28;20202;-67
2022/05/08 03:01:37;;;;;;;6.28;4.57;;;;;;;-143.53;100.00;58366.03;2045171;28;20226;-68
2022/05/08 03:02:39;;;;;;;11.75;5.35;;;;;;;-143.53;100.00;58366.03;2055536;28;20199;-68
2022/05/08 03:03:41;;;;;;;7.10;5.07;;;;;;;-143.53;100.00;58366.03;2048951;28;20242;-67
2022/05/08 03:04:43;;;;;;;11.52;6.00;;;;;;;-143.53;100.00;58366.03;2045957;29;20202;-67
2022/05/08 03:05:47;;;;;;;10.60;5.07;;;;;;;-143.53;100.00;58366.03;2041528;28;20204;-67
2022/05/08 03:06:48;;;;;;;7.88;5.85;;;;;;;-143.53;100.00;58366.03;2047440;29;20259;-68
2022/05/08 03:07:50;;;;;;;8.63;6.22;;;;;;;-143.53;100.00;58366.03;2048126;29;20199;-67
2022/05/08 03:08:52;;;;;;;8.13;5.40;;;;;;;-143.53;100.00;58366.03;2048055;29;20192;-67
2022/05/08 03:09:53;;;;;;;9.25;5.25;;;;;;;-143.53;100.00;58366.03;2048569;28;20207;-67
2022/05/08 03:12:15;;;;;;;9.13;5.82;;;;;;;-143.53;100.00;58366.03;2056037;28;20211;-67
2022/05/08 03:13:17;;;;;;;13.77;6.07;;;;;;;-143.53;100.00;58366.03;2052279;28;20207;-67
2022/05/08 03:14:20;;;;;;;10.00;5.60;;;;;;;-143.53;100.00;58366.03;2047319;29;20208;-67
2022/05/08 03:15:22;;;;;;;10.75;6.35;;;;;;;-143.53;100.00;58366.03;2048547;28;20200;-67
2022/05/08 03:16:26;;;;;;;9.85;6.35;;;;;;;-143.53;100.00;58366.03;2043652;28;20924;-67
2022/05/08 03:17:27;;;;;;;11.63;5.78;;;;;;;-143.53;100.00;58366.03;2055368;28;20290;-67
2022/05/08 03:18:29;;;;;;;16.38;6.72;;;;;;;-143.53;100.00;58366.03;2050399;28;20292;-67
2022/05/08 03:19:31;;;;;;;9.32;6.45;;;;;;;-143.53;100.00;58366.03;2046239;29;20219;-67
2022/05/08 03:20:33;;;;;;;8.40;5.72;;;;;;;-143.53;100.00;58366.03;2048358;28;20200;-67
2022/05/08 03:21:35;;;;;;;10.48;5.95;;;;;;;-143.53;100.00;58366.03;2044944;28;20247;-67
2022/05/08 03:22:36;;;;;;;8.63;6.05;;;;;;;-143.53;100.00;58366.03;2055764;28;20199;-67
2022/05/08 03:23:42;;;;;;;9.07;6.32;;;;;;;-143.53;100.00;58366.03;2049260;28;20207;-67
2022/05/08 03:24:43;;;;;;;9.70;5.97;;;;;;;-143.53;100.00;58366.03;2047911;29;20204;-67
2022/05/08 03:25:45;;;;;;;8.27;5.90;;;;;;;-143.53;100.00;58366.03;2038413;28;20688;-67
2022/05/08 03:26:46;;;;;;;11.93;6.45;;;;;;;-143.53;100.00;58366.03;2055968;28;20245;-68
2022/05/08 03:27:48;;;;;;;11.93;5.13;;;;;;;-143.53;100.00;58366.03;2055619;28;20394;-67
2022/05/08 03:28:49;;;;;;;36.88;6.97;;;;;;;-143.53;100.00;58366.03;2048702;28;20203;-67
2022/05/08 03:29:51;;;;;;;9.45;6.25;;;;;;;-143.53;100.00;58366.03;2048629;28;20203;-68
2022/05/08 03:30:52;;;;;;;8.85;5.85;;;;;;;-143.53;100.00;58366.03;2037838;28;20199;-67
2022/05/08 03:31:54;;;;;;;10.13;6.60;;;;;;;-143.53;100.00;58366.03;2047854;29;20208;-67
2022/05/08 03:32:59;;;;;;;9.40;6.18;;;;;;;-143.53;100.00;58366.03;2048041;29;20247;-67
2022/05/08 03:34:00;;;;;;;9.52;6.35;;;;;;;-143.53;100.00;58366.03;2047831;29;20659;-67
2022/05/08 03:35:03;;;;;;;10.55;6.05;;;;;;;-143.53;100.00;58366.03;2048474;28;20200;-67
2022/05/08 03:36:05;;;;;;;7.32;6.13;;;;;;;-143.53;100.00;58366.03;2040923;28;20230;-67
2022/05/08 03:37:07;;;;;;;9.45;5.75;;;;;;;-143.53;100.00;58366.03;2055003;28;20202;-68
2022/05/08 03:38:09;;;;;;;9.10;6.45;;;;;;;-143.53;100.00;58366.03;2051695;28;20210;-68
2022/05/08 03:39:13;;;;;;;7.72;5.40;;;;;;;-143.53;100.00;58366.03;2048543;28;20207;-67
2022/05/08 03:40:15;;;;;;;11.75;5.40;;;;;;;-143.53;100.00;58366.03;2047481;29;20212;-67
2022/05/08 03:41:16;;;;;;;9.55;6.55;;;;;;;-143.53;100.00;58366.03;2042008;28;20224;-68
2022/05/08 03:42:18;;;;;;;9.68;6.10;;;;;;;-143.53;100.00;58366.03;2054992;28;20210;-68
2022/05/08 03:43:21;;;;;;;9.30;6.05;;;;;;;-143.53;100.00;58366.03;2051185;28;20204;-68
2022/05/08 03:44:22;;;;;;;8.77;6.55;;;;;;;-143.53;100.00;58366.03;2048334;29;20206;-67
2022/05/08 03:45:24;;;;;;;8.13;6.60;;;;;;;-143.53;100.00;58366.03;2047906;29;20202;-68
2022/05/08 03:46:26;;;;;;;10.40;5.45;;;;;;;-143.53;100.00;58366.03;2043474;28;20226;-68
2022/05/08 03:47:28;;;;;;;7.95;5.60;;;;;;;-143.53;100.00;58366.03;2055681;28;20256;-68
2022/05/08 03:48:29;;;;;;;14.70;5.93;;;;;;;-143.53;100.00;58366.03;2050342;28;20200;-68
2022/05/08 03:49:30;;;;;;;11.05;6.53;;;;;;;-143.53;100.00;58366.03;2047786;28;20207;-67
2022/05/08 03:50:32;;;;;;;9.10;6.40;;;;;;;-143.53;100.00;58366.03;2049011;28;20224;-67
2022/05/08 03:51:34;;;;;;;8.60;6.15;;;;;;;-143.53;100.00;58366.03;2044960;28;20885;-67
2022/05/08 03:52:35;;;;;;;10.20;6.07;;;;;;;-143.53;100.00;58366.03;2055797;28;20702;-68
2022/05/08 03:53:36;;;;;;;11.32;7.32;;;;;;;-143.53;100.00;58366.03;2049068;28;20200;-68
2022/05/08 03:54:38;;;;;;;9.82;6.82;;;;;;;-143.53;100.00;58366.03;2048189;28;20315;-68
2022/05/08 03:55:40;;;;;;;13.25;8.32;;;;;;;-143.53;100.00;58366.03;2048322;28;20202;-68
2022/05/08 03:56:41;;;;;;;11.82;7.07;;;;;;;-143.53;100.00;58366.03;2044121;28;20229;-68
2022/05/08 03:57:45;;;;;;;10.00;6.85;;;;;;;-143.53;100.00;58366.03;2054315;28;20619;-68
2022/05/08 03:58:47;;;;;;;9.82;7.22;;;;;;;-143.53;100.00;58366.03;2047810;29;20210;-68
2022/05/08 03:59:49;;;;;;;10.32;7.35;;;;;;;-143.53;100.00;58366.03;2047636;29;20672;-68
2022/05/08 04:00:50;;;;;;;10.88;6.78;;;;;;;-143.53;100.00;58366.03;2039493;28;20214;-68
2022/05/08 04:01:54;;;;;;;19.02;8.05;;;;;;;-143.53;100.00;58366.03;2047223;29;20202;-68
2022/05/08 04:02:56;;;;;;;10.15;7.22;;;;;;;-143.53;100.00;58366.03;2047058;29;20207;-67
2022/05/08 04:03:59;;;;;;;13.38;6.85;;;;;;;-143.53;100.00;58366.03;2046905;29;20220;-68
2022/05/08 04:05:02;;;;;;;9.77;6.97;;;;;;;-143.53;100.00;58366.03;2047723;29;20203;-68
2022/05/08 04:06:04;;;;;;;8.32;6.80;;;;;;;-143.53;100.00;58366.03;2041021;28;20231;-68
2022/05/08 04:07:06;;;;;;;10.15;7.68;;;;;;;-143.53;100.00;58366.03;2054359;28;20207;-68
2022/05/08 04:08:07;;;;;;;12.75;8.25;;;;;;;-143.53;100.00;58366.03;2052033;28;20196;-68
2022/05/08 04:09:12;;;;;;;11.15;7.50;;;;;;;-143.53;100.00;58366.03;2047559;29;20230;-68
2022/05/08 04:10:14;;;;;;;18.73;7.35;;;;;;;-143.53;100.00;58366.03;2047136;29;20195;-68
2022/05/08 04:11:15;;;;;;;8.65;6.80;;;;;;;-143.53;100.00;58366.03;2042544;28;20282;-67
2022/05/08 04:12:17;;;;;;;13.55;7.50;;;;;;;-143.53;100.00;58366.03;2055187;28;20199;-68
2022/05/08 04:13:18;;;;;;;10.10;7.38;;;;;;;-143.53;100.00;58366.03;2047663;29;20258;-67
2022/05/08 04:14:19;;;;;;;10.70;7.60;;;;;;;-143.53;100.00;58366.03;2043342;28;20204;-68
2022/05/08 04:16:41;;;;;;;12.27;7.30;;;;;;;-143.53;100.00;58366.03;2045036;28;20253;-68
2022/05/08 04:17:42;;;;;;;12.20;7.55;;;;;;;-143.53;100.00;58366.03;2047483;29;20203;-68
2022/05/08 04:18:45;;;;;;;13.95;7.50;;;;;;;-143.53;100.00;58366.03;2045487;29;20935;-68
2022/05/08 04:19:46;;;;;;;9.95;6.72;;;;;;;-143.53;100.00;58366.03;2047439;29;20203;-67
2022/05/08 04:20:48;;;;;;;13.32;7.45;;;;;;;-143.53;100.00;58366.03;2039204;28;20199;-67
2022/05/08 04:21:49;;;;;;;9.13;6.18;;;;;;;-143.53;100.00;58366.03;2055266;28;20243;-68
2022/05/08 04:24:17;;;;;;;9.48;5.93;;;;;;;-143.53;100.00;58366.03;2047879;28;20229;-68
2022/05/08 04:25:18;;;;;;;8.93;6.53;;;;;;;-143.53;100.00;58366.03;2045352;29;20200;-67
2022/05/08 04:26:20;;;;;;;8.38;5.90;;;;;;;-143.53;100.00;58366.03;2040794;28;20234;-68
2022/05/08 04:27:21;;;;;;;6.80;5.65;;;;;;;-143.53;100.00;58366.03;2045819;29;20208;-68
2022/05/08 04:28:23;;;;;;;8.57;5.70;;;;;;;-143.53;100.00;58366.03;2046280;29;20211;-68
2022/05/08 04:29:24;;;;;;;9.85;6.20;;;;;;;-143.53;100.00;58366.03;2047568;29;20215;-68
2022/05/08 04:30:26;;;;;;;11.43;7.53;;;;;;;-143.53;100.00;58366.03;2048123;28;20190;-68
2022/05/08 04:31:28;;;;;;;8.77;6.78;;;;;;;-143.53;100.00;58366.03;2043905;28;20235;-67
2022/05/08 04:32:30;;;;;;;7.38;5.30;;;;;;;-143.53;100.00;58366.03;2052186;28;20211;-67
2022/05/08 04:33:32;;;;;;;6.90;5.40;;;;;;;-143.53;100.00;58366.03;2049092;28;20230;-67
2022/05/08 04:34:33;;;;;;;8.43;5.80;;;;;;;-143.53;100.00;58366.03;2048166;28;20568;-68
2022/05/08 04:35:35;;;;;;;9.82;5.70;;;;;;;-143.53;100.00;58366.03;2046812;29;20343;-67
2022/05/08 04:36:36;;;;;;;10.15;5.75;;;;;;;-143.53;100.00;58366.03;2043658;28;20230;-68
2022/05/08 04:37:38;;;;;;;8.30;6.13;;;;;;;-143.53;100.00;58366.03;2055320;28;20199;-68
2022/05/08 04:38:39;;;;;;;13.18;6.80;;;;;;;-143.53;100.00;58366.03;2047146;29;20196;-68
2022/05/08 04:39:41;;;;;;;11.02;6.38;;;;;;;-143.53;100.00;58366.03;2046091;29;20568;-68
2022/05/08 04:40:42;;;;;;;6.95;5.25;;;;;;;-143.53;100.00;58366.03;2047334;29;20255;-68
2022/05/08 04:41:44;;;;;;;5.75;5.00;;;;;;;-143.53;100.00;58366.03;2035636;28;20232;-68
2022/05/08 04:42:45;;;;;;;8.25;4.70;;;;;;;-143.53;100.00;58366.03;2046093;29;20238;-68
2022/05/08 04:43:46;;;;;;;6.90;5.50;;;;;;;-143.53;100.00;58366.03;2046141;29;20204;-69
2022/05/08 04:44:48;;;;;;;9.13;5.65;;;;;;;-143.53;100.00;58366.03;2047726;28;20206;-68
2022/05/08 04:45:49;;;;;;;7.28;5.57;;;;;;;-143.53;100.00;58366.03;2037222;28;20230;-67
2022/05/08 04:46:51;;;;;;;7.68;5.85;;;;;;;-143.53;100.00;58366.03;2054828;28;20805;-68
2022/05/08 04:47:53;;;;;;;15.55;5.47;;;;;;;-143.53;100.00;58366.03;2054478;28;20210;-68
2022/05/08 04:48:54;;;;;;;11.48;5.68;;;;;;;-143.53;100.00;58366.03;2047838;28;20257;-68